Current | Forecast
Updated: 10:30 AM +08 on August 21, 2017
Observed at Ulan-Ude, Russia
Temperature 66°F
Humidity 49%
Dew Point 46°F
Wind WNW at 18 mph
Pressure 29.71 in (Rising)
Conditions Smoke
Visibility 3.1 miles
UV 4 out of 16
Clouds Scattered Clouds (SCT) : 4000 ft
Yesterday's Maximum 68°F
Yesterday's Minimum 59°F approx.
Yesterday's Heating Degree Days 2 approx.
Sunrise5:46 AM +08
Sunset8:04 PM +08
Moon Rise4:46 AM +08
Moon Set7:51 PM +08
Moon PhaseMoon Phase
Waning Crescent
Raw METARMETAR UIUU 210230Z 29008MPS 250V320 5000 FU SCT040CB 19/08 Q1006 R26/CLRD60 NOSIG RMK QFE710/0947


Monday
. High: 57° F.
Tuesday
. High: 46° F.
Wednesday
. High: 44° F.
Thursday
. High: 48° F.
Friday
. High: 57° F.
Saturday
. High: 57° F.
Sunday
. High: 59° F.
Monday
. High: 71° F.

Units: English | Metric

Find the Weather for any City, State or Zipcode, or Country:

U.S. State List | Severe Weather | Tropical Storms | Ski Conditions
United States | Canada | Central America | South America | Asia | Europe | Australia | Africa | Islands

Weather Underground

© Copyright 2017
The Weather Company, LLC